sensor_id;sensor_type;location;lat;lon;timestamp;P1;durP1;ratioP1;P2;durP2;ratioP2
42864;SDS011;28511;42.680;23.252;2022-07-24T00:00:17;14.98;;;9.88;;
42864;SDS011;28511;42.680;23.252;2022-07-24T00:02:43;18.65;;;10.10;;
42864;SDS011;28511;42.680;23.252;2022-07-24T00:05:09;18.33;;;10.48;;
42864;SDS011;28511;42.680;23.252;2022-07-24T00:07:35;22.15;;;9.65;;
42864;SDS011;28511;42.680;23.252;2022-07-24T00:10:03;18.60;;;9.27;;
42864;SDS011;28511;42.680;23.252;2022-07-24T00:12:29;18.88;;;9.45;;
42864;SDS011;28511;42.680;23.252;2022-07-24T00:14:55;17.27;;;7.80;;
42864;SDS011;28511;42.680;23.252;2022-07-24T00:17:22;14.38;;;7.75;;
42864;SDS011;28511;42.680;23.252;2022-07-24T00:19:47;19.15;;;9.57;;
42864;SDS011;28511;42.680;23.252;2022-07-24T00:22:14;17.35;;;8.50;;
42864;SDS011;28511;42.680;23.252;2022-07-24T00:24:48;17.85;;;7.97;;
42864;SDS011;28511;42.680;23.252;2022-07-24T00:27:13;14.50;;;9.80;;
42864;SDS011;28511;42.680;23.252;2022-07-24T00:29:41;18.77;;;9.10;;
42864;SDS011;28511;42.680;23.252;2022-07-24T00:34:40;17.42;;;9.30;;
42864;SDS011;28511;42.680;23.252;2022-07-24T00:37:06;20.10;;;10.02;;
42864;SDS011;28511;42.680;23.252;2022-07-24T00:39:32;18.58;;;9.15;;
42864;SDS011;28511;42.680;23.252;2022-07-24T00:41:58;15.77;;;9.27;;
42864;SDS011;28511;42.680;23.252;2022-07-24T00:44:23;15.43;;;7.60;;
42864;SDS011;28511;42.680;23.252;2022-07-24T00:46:49;15.05;;;7.75;;
42864;SDS011;28511;42.680;23.252;2022-07-24T00:49:16;17.38;;;8.18;;
42864;SDS011;28511;42.680;23.252;2022-07-24T00:51:42;23.08;;;10.10;;
42864;SDS011;28511;42.680;23.252;2022-07-24T00:54:09;16.77;;;8.02;;
42864;SDS011;28511;42.680;23.252;2022-07-24T00:56:35;18.55;;;9.52;;
42864;SDS011;28511;42.680;23.252;2022-07-24T00:59:01;16.40;;;8.38;;
42864;SDS011;28511;42.680;23.252;2022-07-24T01:01:27;20.98;;;9.13;;
42864;SDS011;28511;42.680;23.252;2022-07-24T01:03:53;19.27;;;8.18;;
42864;SDS011;28511;42.680;23.252;2022-07-24T01:06:18;20.65;;;9.27;;
42864;SDS011;28511;42.680;23.252;2022-07-24T01:08:45;19.15;;;9.40;;
42864;SDS011;28511;42.680;23.252;2022-07-24T01:11:10;19.00;;;8.20;;
42864;SDS011;28511;42.680;23.252;2022-07-24T01:13:36;16.88;;;9.07;;
42864;SDS011;28511;42.680;23.252;2022-07-24T01:16:02;19.95;;;9.25;;
42864;SDS011;28511;42.680;23.252;2022-07-24T01:18:28;18.08;;;8.90;;
42864;SDS011;28511;42.680;23.252;2022-07-24T01:20:53;18.40;;;9.35;;
42864;SDS011;28511;42.680;23.252;2022-07-24T01:23:20;19.55;;;9.38;;
42864;SDS011;28511;42.680;23.252;2022-07-24T01:25:45;17.60;;;10.10;;
42864;SDS011;28511;42.680;23.252;2022-07-24T01:28:11;21.33;;;9.70;;
42864;SDS011;28511;42.680;23.252;2022-07-24T01:30:38;19.75;;;10.63;;
42864;SDS011;28511;42.680;23.252;2022-07-24T01:33:05;21.13;;;10.07;;
42864;SDS011;28511;42.680;23.252;2022-07-24T01:35:30;18.67;;;9.88;;
42864;SDS011;28511;42.680;23.252;2022-07-24T01:37:57;19.00;;;9.40;;
42864;SDS011;28511;42.680;23.252;2022-07-24T01:40:22;22.33;;;9.18;;
42864;SDS011;28511;42.680;23.252;2022-07-24T01:42:49;18.58;;;9.30;;
42864;SDS011;28511;42.680;23.252;2022-07-24T01:45:15;18.25;;;9.25;;
42864;SDS011;28511;42.680;23.252;2022-07-24T01:47:42;16.75;;;9.52;;
42864;SDS011;28511;42.680;23.252;2022-07-24T01:50:09;21.20;;;10.13;;
42864;SDS011;28511;42.680;23.252;2022-07-24T01:52:35;16.40;;;9.13;;
42864;SDS011;28511;42.680;23.252;2022-07-24T01:55:02;21.58;;;9.15;;
42864;SDS011;28511;42.680;23.252;2022-07-24T01:57:28;13.80;;;8.98;;
42864;SDS011;28511;42.680;23.252;2022-07-24T01:59:54;16.77;;;9.88;;
42864;SDS011;28511;42.680;23.252;2022-07-24T02:02:21;16.88;;;9.70;;
42864;SDS011;28511;42.680;23.252;2022-07-24T02:04:46;18.08;;;9.98;;
42864;SDS011;28511;42.680;23.252;2022-07-24T02:07:12;21.50;;;10.15;;
42864;SDS011;28511;42.680;23.252;2022-07-24T02:09:37;15.35;;;9.68;;
42864;SDS011;28511;42.680;23.252;2022-07-24T02:12:03;17.25;;;9.52;;
42864;SDS011;28511;42.680;23.252;2022-07-24T02:14:28;18.83;;;9.88;;
42864;SDS011;28511;42.680;23.252;2022-07-24T02:16:54;15.27;;;8.82;;
42864;SDS011;28511;42.680;23.252;2022-07-24T02:19:19;19.25;;;9.30;;
42864;SDS011;28511;42.680;23.252;2022-07-24T02:21:45;19.25;;;10.30;;
42864;SDS011;28511;42.680;23.252;2022-07-24T02:24:11;17.80;;;10.82;;
42864;SDS011;28511;42.680;23.252;2022-07-24T02:26:37;22.40;;;12.60;;
42864;SDS011;28511;42.680;23.252;2022-07-24T02:29:03;19.40;;;10.35;;
42864;SDS011;28511;42.680;23.252;2022-07-24T02:31:28;20.55;;;10.23;;
42864;SDS011;28511;42.680;23.252;2022-07-24T02:33:54;19.63;;;10.70;;
42864;SDS011;28511;42.680;23.252;2022-07-24T02:36:19;19.55;;;9.60;;
42864;SDS011;28511;42.680;23.252;2022-07-24T02:38:45;18.80;;;9.48;;
42864;SDS011;28511;42.680;23.252;2022-07-24T02:41:11;19.10;;;10.30;;
42864;SDS011;28511;42.680;23.252;2022-07-24T02:43:36;20.73;;;11.00;;
42864;SDS011;28511;42.680;23.252;2022-07-24T02:46:02;24.67;;;11.18;;
42864;SDS011;28511;42.680;23.252;2022-07-24T02:48:27;15.95;;;9.75;;
42864;SDS011;28511;42.680;23.252;2022-07-24T02:50:52;15.85;;;10.23;;
42864;SDS011;28511;42.680;23.252;2022-07-24T02:53:18;20.10;;;10.15;;
42864;SDS011;28511;42.680;23.252;2022-07-24T02:55:44;17.83;;;10.15;;
42864;SDS011;28511;42.680;23.252;2022-07-24T02:58:10;19.48;;;9.95;;
42864;SDS011;28511;42.680;23.252;2022-07-24T03:00:36;17.92;;;9.50;;
42864;SDS011;28511;42.680;23.252;2022-07-24T03:03:01;20.92;;;10.15;;
42864;SDS011;28511;42.680;23.252;2022-07-24T03:05:27;21.38;;;9.73;;
42864;SDS011;28511;42.680;23.252;2022-07-24T03:07:52;17.80;;;10.45;;
42864;SDS011;28511;42.680;23.252;2022-07-24T03:10:18;17.30;;;10.00;;
42864;SDS011;28511;42.680;23.252;2022-07-24T03:12:44;20.48;;;10.27;;
42864;SDS011;28511;42.680;23.252;2022-07-24T03:15:11;20.30;;;9.80;;
42864;SDS011;28511;42.680;23.252;2022-07-24T03:17:37;17.52;;;10.27;;
42864;SDS011;28511;42.680;23.252;2022-07-24T03:20:03;19.50;;;9.45;;
42864;SDS011;28511;42.680;23.252;2022-07-24T03:22:28;22.52;;;10.77;;
42864;SDS011;28511;42.680;23.252;2022-07-24T03:24:54;21.88;;;10.30;;
42864;SDS011;28511;42.680;23.252;2022-07-24T03:27:19;21.23;;;10.25;;
42864;SDS011;28511;42.680;23.252;2022-07-24T03:29:45;19.42;;;9.93;;
42864;SDS011;28511;42.680;23.252;2022-07-24T03:32:12;19.20;;;9.85;;
42864;SDS011;28511;42.680;23.252;2022-07-24T03:34:37;15.48;;;9.65;;
42864;SDS011;28511;42.680;23.252;2022-07-24T03:37:03;23.00;;;11.10;;
42864;SDS011;28511;42.680;23.252;2022-07-24T03:39:28;18.38;;;9.70;;
42864;SDS011;28511;42.680;23.252;2022-07-24T03:41:55;23.70;;;10.27;;
42864;SDS011;28511;42.680;23.252;2022-07-24T03:44:20;23.15;;;11.10;;
42864;SDS011;28511;42.680;23.252;2022-07-24T03:46:46;21.90;;;9.88;;
42864;SDS011;28511;42.680;23.252;2022-07-24T03:49:12;24.02;;;10.35;;
42864;SDS011;28511;42.680;23.252;2022-07-24T03:51:37;21.75;;;9.02;;
42864;SDS011;28511;42.680;23.252;2022-07-24T03:54:03;19.52;;;9.23;;
42864;SDS011;28511;42.680;23.252;2022-07-24T03:56:29;21.15;;;9.50;;
42864;SDS011;28511;42.680;23.252;2022-07-24T03:58:54;25.73;;;10.35;;
42864;SDS011;28511;42.680;23.252;2022-07-24T04:01:21;19.15;;;9.38;;
42864;SDS011;28511;42.680;23.252;2022-07-24T04:03:46;21.30;;;11.15;;
42864;SDS011;28511;42.680;23.252;2022-07-24T04:06:13;19.50;;;9.90;;
42864;SDS011;28511;42.680;23.252;2022-07-24T04:08:39;18.35;;;9.90;;
42864;SDS011;28511;42.680;23.252;2022-07-24T04:11:04;20.63;;;9.40;;
42864;SDS011;28511;42.680;23.252;2022-07-24T04:13:30;16.90;;;9.55;;
42864;SDS011;28511;42.680;23.252;2022-07-24T04:15:56;16.77;;;10.05;;
42864;SDS011;28511;42.680;23.252;2022-07-24T04:18:22;17.75;;;9.80;;
42864;SDS011;28511;42.680;23.252;2022-07-24T04:20:48;21.63;;;10.02;;
42864;SDS011;28511;42.680;23.252;2022-07-24T04:23:13;23.10;;;10.73;;
42864;SDS011;28511;42.680;23.252;2022-07-24T04:25:39;26.85;;;11.75;;
42864;SDS011;28511;42.680;23.252;2022-07-24T04:28:04;23.67;;;11.85;;
42864;SDS011;28511;42.680;23.252;2022-07-24T04:30:31;20.35;;;9.98;;
42864;SDS011;28511;42.680;23.252;2022-07-24T04:32:57;17.63;;;10.48;;
42864;SDS011;28511;42.680;23.252;2022-07-24T04:35:23;21.23;;;12.00;;
42864;SDS011;28511;42.680;23.252;2022-07-24T04:37:48;25.90;;;10.25;;
42864;SDS011;28511;42.680;23.252;2022-07-24T04:40:14;21.98;;;10.98;;
42864;SDS011;28511;42.680;23.252;2022-07-24T04:42:39;26.63;;;13.75;;
42864;SDS011;28511;42.680;23.252;2022-07-24T04:45:05;20.60;;;12.40;;
42864;SDS011;28511;42.680;23.252;2022-07-24T04:47:32;21.23;;;12.10;;
42864;SDS011;28511;42.680;23.252;2022-07-24T04:49:57;20.70;;;13.50;;
42864;SDS011;28511;42.680;23.252;2022-07-24T04:52:23;19.67;;;11.80;;
42864;SDS011;28511;42.680;23.252;2022-07-24T04:54:48;21.25;;;13.50;;
42864;SDS011;28511;42.680;23.252;2022-07-24T04:57:14;21.88;;;10.77;;
42864;SDS011;28511;42.680;23.252;2022-07-24T04:59:39;19.85;;;10.88;;
42864;SDS011;28511;42.680;23.252;2022-07-24T05:02:05;19.65;;;10.77;;
42864;SDS011;28511;42.680;23.252;2022-07-24T05:04:30;21.63;;;10.52;;
42864;SDS011;28511;42.680;23.252;2022-07-24T05:06:58;21.65;;;10.98;;
42864;SDS011;28511;42.680;23.252;2022-07-24T05:09:23;19.08;;;11.55;;
42864;SDS011;28511;42.680;23.252;2022-07-24T05:11:49;15.30;;;10.53;;
42864;SDS011;28511;42.680;23.252;2022-07-24T05:14:14;16.23;;;9.75;;
42864;SDS011;28511;42.680;23.252;2022-07-24T05:16:40;17.92;;;10.13;;
42864;SDS011;28511;42.680;23.252;2022-07-24T05:19:05;16.70;;;9.40;;
42864;SDS011;28511;42.680;23.252;2022-07-24T05:21:31;15.15;;;10.43;;
42864;SDS011;28511;42.680;23.252;2022-07-24T05:23:57;16.05;;;9.70;;
42864;SDS011;28511;42.680;23.252;2022-07-24T05:26:26;17.08;;;9.45;;
42864;SDS011;28511;42.680;23.252;2022-07-24T05:28:52;16.88;;;9.65;;
42864;SDS011;28511;42.680;23.252;2022-07-24T05:31:17;16.65;;;8.45;;
42864;SDS011;28511;42.680;23.252;2022-07-24T05:33:43;16.63;;;8.30;;
42864;SDS011;28511;42.680;23.252;2022-07-24T05:36:09;13.52;;;8.60;;
42864;SDS011;28511;42.680;23.252;2022-07-24T05:38:34;17.25;;;9.00;;
42864;SDS011;28511;42.680;23.252;2022-07-24T05:41:00;12.73;;;8.00;;
42864;SDS011;28511;42.680;23.252;2022-07-24T05:43:27;17.10;;;8.25;;
42864;SDS011;28511;42.680;23.252;2022-07-24T05:45:52;13.95;;;7.63;;
42864;SDS011;28511;42.680;23.252;2022-07-24T05:48:18;20.80;;;8.48;;
42864;SDS011;28511;42.680;23.252;2022-07-24T05:50:43;17.90;;;8.23;;
42864;SDS011;28511;42.680;23.252;2022-07-24T05:53:09;18.60;;;9.60;;
42864;SDS011;28511;42.680;23.252;2022-07-24T05:55:34;19.80;;;8.57;;
42864;SDS011;28511;42.680;23.252;2022-07-24T05:58:00;14.65;;;8.70;;
42864;SDS011;28511;42.680;23.252;2022-07-24T06:00:27;18.25;;;9.48;;
42864;SDS011;28511;42.680;23.252;2022-07-24T06:02:52;15.50;;;9.88;;
42864;SDS011;28511;42.680;23.252;2022-07-24T06:05:18;17.67;;;9.68;;
42864;SDS011;28511;42.680;23.252;2022-07-24T06:07:44;20.30;;;10.20;;
42864;SDS011;28511;42.680;23.252;2022-07-24T06:10:10;21.85;;;10.48;;
42864;SDS011;28511;42.680;23.252;2022-07-24T06:12:36;21.35;;;10.05;;
42864;SDS011;28511;42.680;23.252;2022-07-24T06:15:02;19.65;;;10.20;;
42864;SDS011;28511;42.680;23.252;2022-07-24T06:17:28;19.10;;;10.77;;
42864;SDS011;28511;42.680;23.252;2022-07-24T06:19:53;17.27;;;9.60;;
42864;SDS011;28511;42.680;23.252;2022-07-24T06:22:19;18.13;;;9.73;;
42864;SDS011;28511;42.680;23.252;2022-07-24T06:24:44;17.17;;;10.17;;
42864;SDS011;28511;42.680;23.252;2022-07-24T06:27:09;15.70;;;9.20;;
42864;SDS011;28511;42.680;23.252;2022-07-24T06:29:35;21.88;;;9.98;;
42864;SDS011;28511;42.680;23.252;2022-07-24T06:32:01;20.63;;;9.50;;
42864;SDS011;28511;42.680;23.252;2022-07-24T06:34:26;21.88;;;10.68;;
42864;SDS011;28511;42.680;23.252;2022-07-24T06:36:52;22.00;;;10.38;;
42864;SDS011;28511;42.680;23.252;2022-07-24T06:39:19;32.58;;;11.88;;
42864;SDS011;28511;42.680;23.252;2022-07-24T06:41:44;18.02;;;8.88;;
42864;SDS011;28511;42.680;23.252;2022-07-24T06:44:10;20.45;;;10.80;;
42864;SDS011;28511;42.680;23.252;2022-07-24T06:46:36;21.60;;;8.82;;
42864;SDS011;28511;42.680;23.252;2022-07-24T06:49:04;20.80;;;9.80;;
42864;SDS011;28511;42.680;23.252;2022-07-24T06:51:29;18.58;;;9.63;;
42864;SDS011;28511;42.680;23.252;2022-07-24T06:53:56;16.77;;;9.25;;
42864;SDS011;28511;42.680;23.252;2022-07-24T06:56:21;17.75;;;9.27;;
42864;SDS011;28511;42.680;23.252;2022-07-24T06:58:47;19.52;;;9.48;;
42864;SDS011;28511;42.680;23.252;2022-07-24T07:01:13;23.58;;;9.45;;
42864;SDS011;28511;42.680;23.252;2022-07-24T07:03:38;17.00;;;8.98;;
42864;SDS011;28511;42.680;23.252;2022-07-24T07:06:04;15.82;;;9.00;;
42864;SDS011;28511;42.680;23.252;2022-07-24T07:08:31;23.10;;;10.75;;
42864;SDS011;28511;42.680;23.252;2022-07-24T07:10:57;24.05;;;11.23;;
42864;SDS011;28511;42.680;23.252;2022-07-24T07:13:22;15.38;;;9.40;;
42864;SDS011;28511;42.680;23.252;2022-07-24T07:15:49;15.10;;;9.27;;
42864;SDS011;28511;42.680;23.252;2022-07-24T07:18:16;21.65;;;9.43;;
42864;SDS011;28511;42.680;23.252;2022-07-24T07:20:41;54.45;;;12.80;;
42864;SDS011;28511;42.680;23.252;2022-07-24T07:23:08;13.55;;;8.80;;
42864;SDS011;28511;42.680;23.252;2022-07-24T07:25:34;15.65;;;8.55;;
42864;SDS011;28511;42.680;23.252;2022-07-24T07:28:00;24.23;;;9.68;;
42864;SDS011;28511;42.680;23.252;2022-07-24T07:30:26;19.05;;;9.05;;
42864;SDS011;28511;42.680;23.252;2022-07-24T07:32:52;12.93;;;9.18;;
42864;SDS011;28511;42.680;23.252;2022-07-24T07:35:18;31.15;;;11.40;;
42864;SDS011;28511;42.680;23.252;2022-07-24T07:37:46;14.90;;;9.18;;
42864;SDS011;28511;42.680;23.252;2022-07-24T07:40:17;17.80;;;9.98;;
42864;SDS011;28511;42.680;23.252;2022-07-24T07:42:42;17.58;;;10.35;;
42864;SDS011;28511;42.680;23.252;2022-07-24T07:45:08;15.15;;;9.50;;
42864;SDS011;28511;42.680;23.252;2022-07-24T07:50:02;23.70;;;10.20;;
42864;SDS011;28511;42.680;23.252;2022-07-24T07:52:28;17.00;;;8.95;;
42864;SDS011;28511;42.680;23.252;2022-07-24T07:54:54;17.98;;;8.95;;
42864;SDS011;28511;42.680;23.252;2022-07-24T07:57:20;19.55;;;10.43;;
42864;SDS011;28511;42.680;23.252;2022-07-24T07:59:45;14.93;;;8.93;;
42864;SDS011;28511;42.680;23.252;2022-07-24T08:02:11;22.20;;;10.75;;
42864;SDS011;28511;42.680;23.252;2022-07-24T08:04:37;23.02;;;9.98;;
42864;SDS011;28511;42.680;23.252;2022-07-24T08:07:08;20.52;;;9.98;;
42864;SDS011;28511;42.680;23.252;2022-07-24T08:09:33;19.73;;;10.90;;
42864;SDS011;28511;42.680;23.252;2022-07-24T08:11:59;17.95;;;9.90;;
42864;SDS011;28511;42.680;23.252;2022-07-24T08:14:26;15.63;;;9.50;;
42864;SDS011;28511;42.680;23.252;2022-07-24T08:16:52;13.45;;;10.20;;
42864;SDS011;28511;42.680;23.252;2022-07-24T08:19:21;18.60;;;9.90;;
42864;SDS011;28511;42.680;23.252;2022-07-24T08:21:47;18.75;;;9.85;;
42864;SDS011;28511;42.680;23.252;2022-07-24T08:24:17;15.18;;;9.93;;
42864;SDS011;28511;42.680;23.252;2022-07-24T08:26:47;18.40;;;9.85;;
42864;SDS011;28511;42.680;23.252;2022-07-24T08:31:52;15.18;;;9.35;;
42864;SDS011;28511;42.680;23.252;2022-07-24T08:34:18;17.40;;;9.93;;
42864;SDS011;28511;42.680;23.252;2022-07-24T08:36:51;17.38;;;9.85;;
42864;SDS011;28511;42.680;23.252;2022-07-24T08:39:17;16.35;;;9.68;;
42864;SDS011;28511;42.680;23.252;2022-07-24T08:41:43;14.70;;;10.30;;
42864;SDS011;28511;42.680;23.252;2022-07-24T08:44:11;18.70;;;10.18;;
42864;SDS011;28511;42.680;23.252;2022-07-24T08:46:38;16.83;;;10.50;;
42864;SDS011;28511;42.680;23.252;2022-07-24T08:49:06;17.25;;;10.05;;
42864;SDS011;28511;42.680;23.252;2022-07-24T08:51:32;17.55;;;10.75;;
42864;SDS011;28511;42.680;23.252;2022-07-24T08:54:01;19.80;;;11.35;;
42864;SDS011;28511;42.680;23.252;2022-07-24T08:56:27;16.17;;;9.82;;
42864;SDS011;28511;42.680;23.252;2022-07-24T08:58:53;16.52;;;10.50;;
42864;SDS011;28511;42.680;23.252;2022-07-24T09:01:19;25.85;;;11.63;;
42864;SDS011;28511;42.680;23.252;2022-07-24T09:03:46;17.55;;;10.68;;
42864;SDS011;28511;42.680;23.252;2022-07-24T09:06:12;18.92;;;9.73;;
42864;SDS011;28511;42.680;23.252;2022-07-24T09:08:39;25.55;;;10.35;;
42864;SDS011;28511;42.680;23.252;2022-07-24T09:11:04;20.50;;;10.50;;
42864;SDS011;28511;42.680;23.252;2022-07-24T09:13:31;19.75;;;10.60;;
42864;SDS011;28511;42.680;23.252;2022-07-24T09:16:20;21.92;;;12.20;;
42864;SDS011;28511;42.680;23.252;2022-07-24T09:19:07;18.77;;;10.70;;
42864;SDS011;28511;42.680;23.252;2022-07-24T09:21:34;17.70;;;10.38;;
42864;SDS011;28511;42.680;23.252;2022-07-24T09:23:59;22.35;;;10.45;;
42864;SDS011;28511;42.680;23.252;2022-07-24T09:29:13;17.45;;;10.55;;
42864;SDS011;28511;42.680;23.252;2022-07-24T09:31:52;20.00;;;9.55;;
42864;SDS011;28511;42.680;23.252;2022-07-24T09:36:54;21.63;;;10.05;;
42864;SDS011;28511;42.680;23.252;2022-07-24T09:39:20;26.50;;;10.18;;
42864;SDS011;28511;42.680;23.252;2022-07-24T09:41:54;17.25;;;8.38;;
42864;SDS011;28511;42.680;23.252;2022-07-24T09:44:21;14.93;;;8.75;;
42864;SDS011;28511;42.680;23.252;2022-07-24T09:46:54;15.63;;;8.50;;
42864;SDS011;28511;42.680;23.252;2022-07-24T09:52:22;16.83;;;8.10;;
42864;SDS011;28511;42.680;23.252;2022-07-24T09:54:58;15.75;;;8.23;;
42864;SDS011;28511;42.680;23.252;2022-07-24T09:59:51;15.30;;;8.55;;
42864;SDS011;28511;42.680;23.252;2022-07-24T10:02:18;19.33;;;10.23;;
42864;SDS011;28511;42.680;23.252;2022-07-24T10:04:45;13.45;;;8.77;;
42864;SDS011;28511;42.680;23.252;2022-07-24T10:07:13;14.85;;;8.88;;
42864;SDS011;28511;42.680;23.252;2022-07-24T10:09:43;19.35;;;9.57;;
42864;SDS011;28511;42.680;23.252;2022-07-24T10:12:12;14.02;;;8.45;;
42864;SDS011;28511;42.680;23.252;2022-07-24T10:14:39;13.82;;;8.45;;
42864;SDS011;28511;42.680;23.252;2022-07-24T10:17:06;12.32;;;8.40;;
42864;SDS011;28511;42.680;23.252;2022-07-24T10:19:38;12.73;;;8.20;;
42864;SDS011;28511;42.680;23.252;2022-07-24T10:22:06;16.65;;;8.05;;
42864;SDS011;28511;42.680;23.252;2022-07-24T10:24:44;17.92;;;8.30;;
42864;SDS011;28511;42.680;23.252;2022-07-24T10:27:19;13.63;;;8.55;;
42864;SDS011;28511;42.680;23.252;2022-07-24T10:29:47;13.60;;;8.10;;
42864;SDS011;28511;42.680;23.252;2022-07-24T10:32:13;13.50;;;8.10;;
42864;SDS011;28511;42.680;23.252;2022-07-24T10:37:22;15.93;;;8.30;;
42864;SDS011;28511;42.680;23.252;2022-07-24T10:39:58;18.35;;;8.73;;
42864;SDS011;28511;42.680;23.252;2022-07-24T10:47:37;18.27;;;8.23;;
42864;SDS011;28511;42.680;23.252;2022-07-24T10:50:05;12.68;;;8.25;;
42864;SDS011;28511;42.680;23.252;2022-07-24T10:52:32;16.60;;;8.18;;
42864;SDS011;28511;42.680;23.252;2022-07-24T10:57:52;12.77;;;7.80;;
42864;SDS011;28511;42.680;23.252;2022-07-24T11:03:24;13.63;;;8.68;;
42864;SDS011;28511;42.680;23.252;2022-07-24T11:05:43;12.80;;;8.63;;
42864;SDS011;28511;42.680;23.252;2022-07-24T11:10:46;15.38;;;8.45;;
42864;SDS011;28511;42.680;23.252;2022-07-24T11:18:41;15.13;;;7.65;;
42864;SDS011;28511;42.680;23.252;2022-07-24T11:21:08;14.88;;;7.80;;
42864;SDS011;28511;42.680;23.252;2022-07-24T11:23:33;18.05;;;8.23;;
42864;SDS011;28511;42.680;23.252;2022-07-24T11:31:32;17.63;;;9.43;;
42864;SDS011;28511;42.680;23.252;2022-07-24T11:33:58;18.67;;;9.93;;
42864;SDS011;28511;42.680;23.252;2022-07-24T11:36:25;12.13;;;7.90;;
42864;SDS011;28511;42.680;23.252;2022-07-24T11:38:51;15.02;;;8.77;;
42864;SDS011;28511;42.680;23.252;2022-07-24T11:41:16;16.80;;;7.85;;
42864;SDS011;28511;42.680;23.252;2022-07-24T11:43:53;13.95;;;8.40;;
42864;SDS011;28511;42.680;23.252;2022-07-24T11:46:37;13.32;;;8.00;;
42864;SDS011;28511;42.680;23.252;2022-07-24T11:49:04;14.30;;;9.35;;
42864;SDS011;28511;42.680;23.252;2022-07-24T11:51:31;11.40;;;8.15;;
42864;SDS011;28511;42.680;23.252;2022-07-24T11:53:57;13.05;;;8.40;;
42864;SDS011;28511;42.680;23.252;2022-07-24T11:56:22;14.73;;;8.88;;
42864;SDS011;28511;42.680;23.252;2022-07-24T11:58:48;15.07;;;8.48;;
42864;SDS011;28511;42.680;23.252;2022-07-24T12:01:22;18.58;;;9.07;;
42864;SDS011;28511;42.680;23.252;2022-07-24T12:03:49;14.68;;;8.50;;
42864;SDS011;28511;42.680;23.252;2022-07-24T12:06:15;13.70;;;8.23;;
42864;SDS011;28511;42.680;23.252;2022-07-24T12:08:41;15.23;;;8.65;;
42864;SDS011;28511;42.680;23.252;2022-07-24T12:11:06;13.20;;;8.43;;
42864;SDS011;28511;42.680;23.252;2022-07-24T12:13:32;18.60;;;8.02;;
42864;SDS011;28511;42.680;23.252;2022-07-24T12:15:58;12.02;;;8.20;;
42864;SDS011;28511;42.680;23.252;2022-07-24T12:18:23;11.45;;;8.85;;
42864;SDS011;28511;42.680;23.252;2022-07-24T12:20:49;14.05;;;8.48;;
42864;SDS011;28511;42.680;23.252;2022-07-24T12:23:15;13.07;;;8.68;;
42864;SDS011;28511;42.680;23.252;2022-07-24T12:25:42;12.80;;;8.27;;
42864;SDS011;28511;42.680;23.252;2022-07-24T12:28:15;14.25;;;8.35;;
42864;SDS011;28511;42.680;23.252;2022-07-24T12:30:42;12.68;;;7.97;;
42864;SDS011;28511;42.680;23.252;2022-07-24T12:35:52;18.25;;;8.00;;
42864;SDS011;28511;42.680;23.252;2022-07-24T12:38:26;12.85;;;8.68;;
42864;SDS011;28511;42.680;23.252;2022-07-24T12:40:51;13.13;;;8.20;;
42864;SDS011;28511;42.680;23.252;2022-07-24T12:43:25;14.10;;;9.02;;
42864;SDS011;28511;42.680;23.252;2022-07-24T12:46:15;13.82;;;8.32;;
42864;SDS011;28511;42.680;23.252;2022-07-24T12:48:40;13.80;;;8.98;;
42864;SDS011;28511;42.680;23.252;2022-07-24T12:51:09;12.07;;;9.38;;
42864;SDS011;28511;42.680;23.252;2022-07-24T12:53:41;13.95;;;8.48;;
42864;SDS011;28511;42.680;23.252;2022-07-24T12:56:15;14.45;;;9.45;;
42864;SDS011;28511;42.680;23.252;2022-07-24T13:01:46;12.43;;;8.63;;
42864;SDS011;28511;42.680;23.252;2022-07-24T13:04:12;12.88;;;8.70;;
42864;SDS011;28511;42.680;23.252;2022-07-24T13:06:41;14.82;;;8.85;;
42864;SDS011;28511;42.680;23.252;2022-07-24T13:09:08;13.55;;;8.48;;
42864;SDS011;28511;42.680;23.252;2022-07-24T13:11:36;14.70;;;8.77;;
42864;SDS011;28511;42.680;23.252;2022-07-24T13:14:02;11.97;;;8.63;;
42864;SDS011;28511;42.680;23.252;2022-07-24T13:16:33;14.65;;;8.38;;
42864;SDS011;28511;42.680;23.252;2022-07-24T13:18:59;14.25;;;9.45;;
42864;SDS011;28511;42.680;23.252;2022-07-24T13:21:25;13.15;;;9.25;;
42864;SDS011;28511;42.680;23.252;2022-07-24T13:23:51;15.38;;;9.32;;
42864;SDS011;28511;42.680;23.252;2022-07-24T13:26:17;12.93;;;8.57;;
42864;SDS011;28511;42.680;23.252;2022-07-24T13:28:42;13.13;;;8.85;;
42864;SDS011;28511;42.680;23.252;2022-07-24T13:31:08;11.52;;;8.85;;
42864;SDS011;28511;42.680;23.252;2022-07-24T13:33:33;15.05;;;9.60;;
42864;SDS011;28511;42.680;23.252;2022-07-24T13:35:59;13.07;;;9.02;;
42864;SDS011;28511;42.680;23.252;2022-07-24T13:38:25;13.48;;;9.77;;
42864;SDS011;28511;42.680;23.252;2022-07-24T13:40:52;13.82;;;8.52;;
42864;SDS011;28511;42.680;23.252;2022-07-24T13:43:19;13.50;;;8.48;;
42864;SDS011;28511;42.680;23.252;2022-07-24T13:45:45;12.63;;;8.73;;
42864;SDS011;28511;42.680;23.252;2022-07-24T13:48:10;12.50;;;9.05;;
42864;SDS011;28511;42.680;23.252;2022-07-24T13:50:36;11.68;;;8.38;;
42864;SDS011;28511;42.680;23.252;2022-07-24T13:53:01;11.13;;;8.87;;
42864;SDS011;28511;42.680;23.252;2022-07-24T13:55:29;11.57;;;8.25;;
42864;SDS011;28511;42.680;23.252;2022-07-24T13:57:55;15.45;;;9.80;;
42864;SDS011;28511;42.680;23.252;2022-07-24T14:00:21;14.60;;;9.38;;
42864;SDS011;28511;42.680;23.252;2022-07-24T14:02:47;14.55;;;10.32;;
42864;SDS011;28511;42.680;23.252;2022-07-24T14:05:13;12.80;;;10.30;;
42864;SDS011;28511;42.680;23.252;2022-07-24T14:07:38;24.15;;;9.63;;
42864;SDS011;28511;42.680;23.252;2022-07-24T14:10:04;54.53;;;12.32;;
42864;SDS011;28511;42.680;23.252;2022-07-24T14:12:29;31.35;;;11.43;;
42864;SDS011;28511;42.680;23.252;2022-07-24T14:14:55;20.52;;;9.38;;
42864;SDS011;28511;42.680;23.252;2022-07-24T14:17:21;24.88;;;10.52;;
42864;SDS011;28511;42.680;23.252;2022-07-24T14:19:46;13.52;;;9.32;;
42864;SDS011;28511;42.680;23.252;2022-07-24T14:22:12;14.88;;;9.15;;
42864;SDS011;28511;42.680;23.252;2022-07-24T14:24:37;16.42;;;9.52;;
42864;SDS011;28511;42.680;23.252;2022-07-24T14:27:03;12.77;;;8.93;;
42864;SDS011;28511;42.680;23.252;2022-07-24T14:29:29;13.77;;;8.85;;
42864;SDS011;28511;42.680;23.252;2022-07-24T14:31:54;17.70;;;9.73;;
42864;SDS011;28511;42.680;23.252;2022-07-24T14:34:20;12.35;;;9.27;;
42864;SDS011;28511;42.680;23.252;2022-07-24T14:36:46;13.00;;;9.32;;
42864;SDS011;28511;42.680;23.252;2022-07-24T14:39:30;12.70;;;9.32;;
42864;SDS011;28511;42.680;23.252;2022-07-24T14:41:59;13.02;;;9.60;;
42864;SDS011;28511;42.680;23.252;2022-07-24T14:44:25;16.98;;;9.45;;
42864;SDS011;28511;42.680;23.252;2022-07-24T14:46:50;12.50;;;9.27;;
42864;SDS011;28511;42.680;23.252;2022-07-24T14:49:16;14.25;;;9.07;;
42864;SDS011;28511;42.680;23.252;2022-07-24T14:51:43;15.05;;;9.77;;
42864;SDS011;28511;42.680;23.252;2022-07-24T14:54:10;16.23;;;10.15;;
42864;SDS011;28511;42.680;23.252;2022-07-24T14:56:36;13.73;;;9.18;;
42864;SDS011;28511;42.680;23.252;2022-07-24T14:59:02;12.70;;;9.07;;
42864;SDS011;28511;42.680;23.252;2022-07-24T15:01:28;14.48;;;9.10;;
42864;SDS011;28511;42.680;23.252;2022-07-24T15:03:54;10.00;;;8.88;;
42864;SDS011;28511;42.680;23.252;2022-07-24T15:06:19;13.15;;;9.25;;